URSSURKK

Guest
Details From URSS - Sochi
To URKK - PASHKOVSKIY
Flight Number -
Tags generated
Created
Modified
Stats Distance 101 nm / 187 km
Max Altitude 0 ft / 0 m
Waypoints 3
Social Downloads 0
Likes 0
Share VATSIM

Download

Looking for another format? Having issues loading an existing format? Contact us
Advertisement - Login to hide

Notes

Basic altitude profile: - Ascent Rate: 200ft/min - Ascent Speed: 250kts - Cruise Altitude: 220ft - Cruise Speed: 310kts - Descent Rate: 1500ft/min - Descent Speed: 250kts Options: - Use NATs: yes - Use PACOTS: yes - Use low airways: yes - Use high airways: yes

Route

URSS NODMI URKK

ID Type Via Altitude Latitude Longitude Leg Dist Tot Dist Heading (true) Name
O URSS APT - 0 ft / 0 m 43.44475˚ 39.94730˚ - 0 nm - Sochi
NODMI FIX - 0 ft / 0 m 45.03500˚ 39.17000˚ 101 nm 101 nm 341° / 340° -
O URKK APT - 0 ft / 0 m 45.03464˚ 39.17045˚ 0 nm 101 nm 138° / 138° PASHKOVSKIY

Altitude Profile

Advertisement - Login to hide

URSS

Details ICAO URSS (AER)
Name Sochi
Region Russia
Timezone Europe/Moscow (UTC+3.0)
Stats Elevation 89 ft / 27 m (AMSL)
Location 43.444749° 39.947302°
Runways 2
Magnetic Variation 7.003° E

METAR

URSS 280300Z 05004MPS 9999 NSC 20/15 Q1014 R02/090070 R06/090070 NOSIG RMK R06/23001MPS QFE759

Decode

TAF

TAF URSS 280156Z 2803/2903 06005MPS 9999 SCT030CB SCT100 BECMG 2806/2807 28005G10MPS TEMPO 2806/2809 24005G10MPS TEMPO 2809/2816 -TSRA BKN030CB BKN100 BECMG 2816/2818 05006MPS

Decode

Departure Runways

ID Width Length Bearing (true) Bearing (mag) Surface Threshold Offset Overrun Length
02 161 ft / 49 m 7,267 ft / 2,215 m 28.98° 21.98° Concrete 0 ft / 0 m 0 ft / 0 m
06 164 ft / 50 m 9,531 ft / 2,905 m 64.90° 57.90° Concrete 262 ft / 80 m 0 ft / 0 m
20 161 ft / 49 m 7,267 ft / 2,215 m 208.99° 201.99° Concrete 0 ft / 0 m 0 ft / 0 m
24 164 ft / 50 m 9,531 ft / 2,905 m 244.92° 237.92° Concrete 0 ft / 0 m 0 ft / 0 m

URKK

Details ICAO URKK (KRR)
Name PASHKOVSKIY
Region Russia
Timezone Europe/Moscow (UTC+3.0)
Stats Elevation 118 ft / 36 m (AMSL)
Location 45.034644° 39.170454°
Runways 2
Magnetic Variation 7.398° E

METAR

URKK 280300Z 05003MPS 020V120 CAVOK 14/10 Q1017 R05R/CLRD70 NOSIG RMK QFE759

Decode

TAF

TAF URKK 280156Z 2803/2903 02003G08MPS 9999 SCT030 TEMPO 2806/2815 05009G14MPS

Decode

Destination Runways

ID Width Length Bearing (true) Bearing (mag) Surface Threshold Offset Overrun Length
05L 160 ft / 49 m 7,177 ft / 2,187 m 52.37° 44.97° Asphalt 0 ft / 0 m 160 ft / 49 m
05R 145 ft / 44 m 9,822 ft / 2,994 m 52.45° 45.05° Concrete 0 ft / 0 m 160 ft / 49 m
23L 145 ft / 44 m 9,822 ft / 2,994 m 232.47° 225.07° Concrete 0 ft / 0 m 160 ft / 49 m
23R 160 ft / 49 m 7,177 ft / 2,187 m 232.38° 224.98° Asphalt 0 ft / 0 m 160 ft / 49 m

Popular Alternatives